<?xml version="1.0" encoding="UTF-8" standalone="no" ?>
<gpx xmlns="http://www.topografix.com/GPX/1/1" xmlns:xsi="http://www.w3.org/2001/XMLSchema-instance" xsi:schemaLocation="http://www.topografix.com/GPX/1/1 http://www.topografix.com/GPX/1/1/gpx.xsd" version="1.1" creator="VisuGPX - https://www.visugpx.com">
  <metadata>
    <name>Rando LN</name>
  </metadata>
  <trk>
    <name><![CDATA[MAISON NEUVE]]></name>
    <extensions>
      <line xmlns="http://www.topografix.com/GPX/gpx_style/0/2">
        <color>fb00ff</color>
        <width>4</width>
      </line>
    </extensions>
    <trkseg>
      <trkpt lat="44.41427" lon="4.14146">
        <ele>150.4</ele>
      </trkpt>
      <trkpt lat="44.41435" lon="4.13996">
        <ele>146.8</ele>
      </trkpt>
      <trkpt lat="44.41403" lon="4.13909">
        <ele>149.1</ele>
      </trkpt>
      <trkpt lat="44.41374" lon="4.13598">
        <ele>147.1</ele>
      </trkpt>
      <trkpt lat="44.41333" lon="4.1355">
        <ele>149</ele>
      </trkpt>
      <trkpt lat="44.41295" lon="4.13566">
        <ele>150.9</ele>
      </trkpt>
      <trkpt lat="44.41219" lon="4.13515">
        <ele>160.9</ele>
      </trkpt>
      <trkpt lat="44.41189" lon="4.13439">
        <ele>168.4</ele>
      </trkpt>
      <trkpt lat="44.4115" lon="4.13424">
        <ele>176.2</ele>
      </trkpt>
      <trkpt lat="44.41124" lon="4.13424">
        <ele>181.1</ele>
      </trkpt>
      <trkpt lat="44.41075" lon="4.1333">
        <ele>186.8</ele>
      </trkpt>
      <trkpt lat="44.41021" lon="4.13249">
        <ele>188.8</ele>
      </trkpt>
      <trkpt lat="44.40963" lon="4.13206">
        <ele>191.792</ele>
        <time>2015-07-28T20:06:26Z</time>
      </trkpt>
      <trkpt lat="44.40881" lon="4.13232">
        <ele>187.673</ele>
        <time>2015-07-28T20:06:46Z</time>
      </trkpt>
      <trkpt lat="44.40807" lon="4.13229">
        <ele>181.82</ele>
        <time>2015-07-28T20:07:06Z</time>
      </trkpt>
      <trkpt lat="44.40688" lon="4.13268">
        <ele>174.308</ele>
        <time>2015-07-28T20:07:26Z</time>
      </trkpt>
      <trkpt lat="44.40625" lon="4.13266">
        <ele>172.255</ele>
        <time>2015-07-28T20:07:46Z</time>
      </trkpt>
      <trkpt lat="44.40603" lon="4.13246">
        <ele>173.999</ele>
        <time>2015-07-28T20:08:06Z</time>
      </trkpt>
      <trkpt lat="44.40569" lon="4.13275">
        <ele>175.256</ele>
        <time>2015-07-28T20:08:26Z</time>
      </trkpt>
      <trkpt lat="44.40542" lon="4.13279">
        <ele>176.084</ele>
        <time>2015-07-28T20:08:46Z</time>
      </trkpt>
      <trkpt lat="44.40535" lon="4.13294">
        <ele>175.796</ele>
        <time>2015-07-28T20:09:06Z</time>
      </trkpt>
      <trkpt lat="44.4053" lon="4.13337">
        <ele>174.731</ele>
        <time>2015-07-28T20:09:26Z</time>
      </trkpt>
      <trkpt lat="44.40543" lon="4.1337">
        <ele>172.084</ele>
        <time>2015-07-28T20:09:46Z</time>
      </trkpt>
      <trkpt lat="44.40537" lon="4.13407">
        <ele>172.029</ele>
        <time>2015-07-28T20:10:06Z</time>
      </trkpt>
      <trkpt lat="44.40538" lon="4.13446">
        <ele>171.531</ele>
        <time>2015-07-28T20:10:26Z</time>
      </trkpt>
      <trkpt lat="44.4051" lon="4.13448">
        <ele>172.961</ele>
        <time>2015-07-28T20:10:46Z</time>
      </trkpt>
      <trkpt lat="44.40515" lon="4.13503">
        <ele>170.807</ele>
        <time>2015-07-28T20:11:06Z</time>
      </trkpt>
      <trkpt lat="44.4051" lon="4.13582">
        <ele>170.308</ele>
        <time>2015-07-28T20:11:26Z</time>
      </trkpt>
      <trkpt lat="44.40476" lon="4.13691">
        <ele>173.879</ele>
        <time>2015-07-28T20:11:46Z</time>
      </trkpt>
      <trkpt lat="44.40487" lon="4.13706">
        <ele>173.763</ele>
        <time>2015-07-28T20:12:06Z</time>
      </trkpt>
      <trkpt lat="44.40468" lon="4.1374">
        <ele>175.46</ele>
        <time>2015-07-28T20:12:26Z</time>
      </trkpt>
      <trkpt lat="44.40448" lon="4.13803">
        <ele>179.438</ele>
        <time>2015-07-28T20:12:46Z</time>
      </trkpt>
      <trkpt lat="44.40433" lon="4.13819">
        <ele>183.19</ele>
        <time>2015-07-28T20:13:06Z</time>
      </trkpt>
      <trkpt lat="44.40426" lon="4.13891">
        <ele>185.485</ele>
        <time>2015-07-28T20:13:26Z</time>
      </trkpt>
      <trkpt lat="44.40375" lon="4.14076">
        <ele>181.328</ele>
        <time>2020-11-21T07:40:45Z</time>
      </trkpt>
      <trkpt lat="44.40373" lon="4.14114">
        <ele>181.243</ele>
        <time>2020-11-21T07:41:05Z</time>
      </trkpt>
      <trkpt lat="44.40365" lon="4.14122">
        <ele>181.823</ele>
        <time>2020-11-21T07:41:25Z</time>
      </trkpt>
      <trkpt lat="44.40375" lon="4.14147">
        <ele>181.983</ele>
        <time>2020-11-21T07:41:45Z</time>
      </trkpt>
      <trkpt lat="44.40396" lon="4.14159">
        <ele>183.911</ele>
        <time>2020-11-21T07:42:05Z</time>
      </trkpt>
      <trkpt lat="44.4038" lon="4.14201">
        <ele>184.708</ele>
        <time>2020-11-21T07:42:25Z</time>
      </trkpt>
      <trkpt lat="44.40389" lon="4.14228">
        <ele>186.288</ele>
        <time>2020-11-21T07:42:45Z</time>
      </trkpt>
      <trkpt lat="44.40381" lon="4.14304">
        <ele>193.312</ele>
        <time>2020-11-21T07:43:05Z</time>
      </trkpt>
      <trkpt lat="44.40358" lon="4.14386">
        <ele>195.269</ele>
        <time>2020-11-21T07:43:25Z</time>
      </trkpt>
      <trkpt lat="44.40362" lon="4.14436">
        <ele>199.557</ele>
        <time>2020-11-21T07:43:45Z</time>
      </trkpt>
      <trkpt lat="44.40341" lon="4.1448">
        <ele>201.519</ele>
        <time>2020-11-21T07:44:05Z</time>
      </trkpt>
      <trkpt lat="44.40379" lon="4.14508">
        <ele>212.144</ele>
        <time>2020-11-21T07:44:25Z</time>
      </trkpt>
      <trkpt lat="44.40376" lon="4.14552">
        <ele>218.197</ele>
        <time>2020-11-21T07:44:45Z</time>
      </trkpt>
      <trkpt lat="44.40381" lon="4.14574">
        <ele>223.112</ele>
        <time>2020-11-21T07:45:05Z</time>
      </trkpt>
      <trkpt lat="44.4038" lon="4.14614">
        <ele>228.158</ele>
        <time>2020-11-21T07:45:25Z</time>
      </trkpt>
      <trkpt lat="44.40383" lon="4.14677">
        <ele>240.552</ele>
        <time>2020-11-21T07:45:45Z</time>
      </trkpt>
      <trkpt lat="44.40331" lon="4.14743">
        <ele>244.217</ele>
        <time>2020-11-21T07:46:05Z</time>
      </trkpt>
      <trkpt lat="44.40316" lon="4.14754">
        <ele>244.808</ele>
        <time>2020-11-21T07:46:25Z</time>
      </trkpt>
      <trkpt lat="44.40266" lon="4.14745">
        <ele>239.971</ele>
        <time>2020-11-21T07:46:45Z</time>
      </trkpt>
      <trkpt lat="44.40221" lon="4.14758">
        <ele>236.975</ele>
        <time>2020-11-21T07:47:05Z</time>
      </trkpt>
      <trkpt lat="44.40179" lon="4.14811">
        <ele>249.472</ele>
        <time>2020-11-21T07:47:25Z</time>
      </trkpt>
      <trkpt lat="44.40165" lon="4.14811">
        <ele>249.83</ele>
        <time>2020-11-21T07:47:45Z</time>
      </trkpt>
      <trkpt lat="44.40136" lon="4.14754">
        <ele>242.312</ele>
        <time>2020-11-21T07:48:05Z</time>
      </trkpt>
      <trkpt lat="44.40117" lon="4.1475">
        <ele>244.927</ele>
        <time>2020-11-21T07:48:25Z</time>
      </trkpt>
      <trkpt lat="44.40115" lon="4.14764">
        <ele>247.98</ele>
        <time>2015-07-28T20:18:26Z</time>
      </trkpt>
      <trkpt lat="44.40129" lon="4.14778">
        <ele>247.935</ele>
        <time>2015-07-28T20:18:46Z</time>
      </trkpt>
      <trkpt lat="44.40172" lon="4.14883">
        <ele>257.685</ele>
        <time>2015-07-28T20:19:06Z</time>
      </trkpt>
      <trkpt lat="44.40148" lon="4.1491">
        <ele>258.089</ele>
        <time>2015-07-28T20:19:26Z</time>
      </trkpt>
      <trkpt lat="44.40119" lon="4.15042">
        <ele>257.817</ele>
        <time>2015-07-28T20:19:46Z</time>
      </trkpt>
      <trkpt lat="44.40113" lon="4.15127">
        <ele>255.208</ele>
        <time>2015-07-28T20:20:06Z</time>
      </trkpt>
      <trkpt lat="44.40084" lon="4.15285">
        <ele>252.334</ele>
        <time>2015-07-28T20:20:26Z</time>
      </trkpt>
      <trkpt lat="44.40076" lon="4.15492">
        <ele>250.618</ele>
        <time>2015-07-28T20:20:46Z</time>
      </trkpt>
      <trkpt lat="44.40057" lon="4.156">
        <ele>249.725</ele>
        <time>2015-07-28T20:21:06Z</time>
      </trkpt>
      <trkpt lat="44.40074" lon="4.15674">
        <ele>251.783</ele>
        <time>2015-07-28T20:21:26Z</time>
      </trkpt>
      <trkpt lat="44.40092" lon="4.1579">
        <ele>251.855</ele>
        <time>2015-07-28T20:21:46Z</time>
      </trkpt>
      <trkpt lat="44.40116" lon="4.15862">
        <ele>250.74</ele>
        <time>2015-07-28T20:22:06Z</time>
      </trkpt>
      <trkpt lat="44.4017" lon="4.16071">
        <ele>250.133</ele>
        <time>2015-07-28T20:22:26Z</time>
      </trkpt>
      <trkpt lat="44.40137" lon="4.16165">
        <ele>248.018</ele>
        <time>2015-07-28T20:22:46Z</time>
      </trkpt>
      <trkpt lat="44.40114" lon="4.1628">
        <ele>245.986</ele>
        <time>2015-07-28T20:23:06Z</time>
      </trkpt>
      <trkpt lat="44.40129" lon="4.16362">
        <ele>245.06</ele>
        <time>2015-07-28T20:23:26Z</time>
      </trkpt>
      <trkpt lat="44.4012" lon="4.16531">
        <ele>244.526</ele>
        <time>2015-07-28T20:23:46Z</time>
      </trkpt>
      <trkpt lat="44.40156" lon="4.16601">
        <ele>245.008</ele>
        <time>2015-07-28T20:24:06Z</time>
      </trkpt>
      <trkpt lat="44.40174" lon="4.16656">
        <ele>244.394</ele>
        <time>2015-07-28T20:24:26Z</time>
      </trkpt>
      <trkpt lat="44.40181" lon="4.16733">
        <ele>244.568</ele>
        <time>2015-07-28T20:24:46Z</time>
      </trkpt>
      <trkpt lat="44.40188" lon="4.16759">
        <ele>244.325</ele>
        <time>2015-07-28T20:25:06Z</time>
      </trkpt>
      <trkpt lat="44.40195" lon="4.16829">
        <ele>243.873</ele>
        <time>2015-07-28T20:25:26Z</time>
      </trkpt>
      <trkpt lat="44.40202" lon="4.16865">
        <ele>243.455</ele>
        <time>2015-07-28T20:25:46Z</time>
      </trkpt>
      <trkpt lat="44.4018" lon="4.17016">
        <ele>228.93</ele>
        <time>2015-07-28T20:26:06Z</time>
      </trkpt>
      <trkpt lat="44.40169" lon="4.17056">
        <ele>227.373</ele>
        <time>2015-07-28T20:26:26Z</time>
      </trkpt>
      <trkpt lat="44.40141" lon="4.17092">
        <ele>227.268</ele>
        <time>2015-07-28T20:26:46Z</time>
      </trkpt>
      <trkpt lat="44.40131" lon="4.17109">
        <ele>224.884</ele>
        <time>2015-07-28T20:27:06Z</time>
      </trkpt>
      <trkpt lat="44.4011" lon="4.17132">
        <ele>223.807</ele>
        <time>2015-07-28T20:27:26Z</time>
      </trkpt>
      <trkpt lat="44.40109" lon="4.17143">
        <ele>222.917</ele>
        <time>2015-07-28T20:27:46Z</time>
      </trkpt>
      <trkpt lat="44.40117" lon="4.17167">
        <ele>219.508</ele>
        <time>2015-07-28T20:28:06Z</time>
      </trkpt>
      <trkpt lat="44.40141" lon="4.17307">
        <ele>225.914</ele>
        <time>2015-07-28T20:28:26Z</time>
      </trkpt>
      <trkpt lat="44.4013" lon="4.17363">
        <ele>231.278</ele>
        <time>2015-07-28T20:28:46Z</time>
      </trkpt>
      <trkpt lat="44.40124" lon="4.17428">
        <ele>234.285</ele>
        <time>2015-07-28T20:29:06Z</time>
      </trkpt>
      <trkpt lat="44.40089" lon="4.17447">
        <ele>235.043</ele>
        <time>2015-07-28T20:29:26Z</time>
      </trkpt>
      <trkpt lat="44.39986" lon="4.17472">
        <ele>233.045</ele>
        <time>2015-07-28T20:29:46Z</time>
      </trkpt>
      <trkpt lat="44.39956" lon="4.17496">
        <ele>234.54</ele>
        <time>2015-07-28T20:30:06Z</time>
      </trkpt>
      <trkpt lat="44.39879" lon="4.175">
        <ele>233.363</ele>
        <time>2015-07-28T20:30:26Z</time>
      </trkpt>
      <trkpt lat="44.39854" lon="4.17524">
        <ele>231.518</ele>
        <time>2015-07-28T20:30:46Z</time>
      </trkpt>
      <trkpt lat="44.39841" lon="4.1756">
        <ele>230.794</ele>
        <time>2015-07-28T20:31:06Z</time>
      </trkpt>
      <trkpt lat="44.39845" lon="4.1759">
        <ele>230.857</ele>
        <time>2015-07-28T20:31:26Z</time>
      </trkpt>
      <trkpt lat="44.39832" lon="4.17606">
        <ele>228.022</ele>
        <time>2015-07-28T20:31:46Z</time>
      </trkpt>
      <trkpt lat="44.39839" lon="4.17635">
        <ele>227.908</ele>
        <time>2015-07-28T20:32:06Z</time>
      </trkpt>
      <trkpt lat="44.39787" lon="4.17718">
        <ele>225.725</ele>
        <time>2015-07-28T20:32:26Z</time>
      </trkpt>
      <trkpt lat="44.39774" lon="4.17721">
        <ele>224.959</ele>
        <time>2015-07-28T20:32:46Z</time>
      </trkpt>
      <trkpt lat="44.39768" lon="4.17748">
        <ele>223.786</ele>
        <time>2015-07-28T20:33:06Z</time>
      </trkpt>
      <trkpt lat="44.3974" lon="4.1775">
        <ele>223.034</ele>
        <time>2015-07-28T20:33:26Z</time>
      </trkpt>
      <trkpt lat="44.39724" lon="4.17808">
        <ele>219.236</ele>
        <time>2015-07-28T20:33:46Z</time>
      </trkpt>
      <trkpt lat="44.39671" lon="4.17883">
        <ele>213.171</ele>
        <time>2015-07-28T20:34:06Z</time>
      </trkpt>
      <trkpt lat="44.39665" lon="4.17915">
        <ele>211.044</ele>
        <time>2015-07-28T20:34:26Z</time>
      </trkpt>
      <trkpt lat="44.39676" lon="4.1799">
        <ele>212.649</ele>
        <time>2015-07-28T20:34:46Z</time>
      </trkpt>
      <trkpt lat="44.39691" lon="4.1802">
        <ele>215.387</ele>
        <time>2015-07-28T20:35:06Z</time>
      </trkpt>
      <trkpt lat="44.39695" lon="4.18055">
        <ele>216.042</ele>
        <time>2015-07-28T20:35:26Z</time>
      </trkpt>
      <trkpt lat="44.39717" lon="4.18091">
        <ele>217.326</ele>
        <time>2015-07-28T20:35:46Z</time>
      </trkpt>
      <trkpt lat="44.39758" lon="4.18093">
        <ele>218.508</ele>
        <time>2015-07-28T20:36:06Z</time>
      </trkpt>
      <trkpt lat="44.39806" lon="4.1812">
        <ele>217.074</ele>
        <time>2015-07-28T20:36:26Z</time>
      </trkpt>
      <trkpt lat="44.39851" lon="4.18127">
        <ele>218.368</ele>
        <time>2015-07-28T20:36:46Z</time>
      </trkpt>
      <trkpt lat="44.39876" lon="4.18155">
        <ele>219.115</ele>
        <time>2015-07-28T20:37:06Z</time>
      </trkpt>
      <trkpt lat="44.39885" lon="4.18183">
        <ele>220.593</ele>
        <time>2015-07-28T20:37:26Z</time>
      </trkpt>
      <trkpt lat="44.39971" lon="4.18335">
        <ele>231.145</ele>
        <time>2015-07-28T20:37:46Z</time>
      </trkpt>
      <trkpt lat="44.39989" lon="4.18346">
        <ele>230.75</ele>
        <time>2015-07-28T20:38:06Z</time>
      </trkpt>
      <trkpt lat="44.40018" lon="4.18419">
        <ele>230.043</ele>
        <time>2015-07-28T20:38:26Z</time>
      </trkpt>
      <trkpt lat="44.39995" lon="4.18535">
        <ele>228.428</ele>
        <time>2015-07-28T20:38:46Z</time>
      </trkpt>
      <trkpt lat="44.39998" lon="4.18578">
        <ele>226.723</ele>
        <time>2015-07-28T20:39:06Z</time>
      </trkpt>
      <trkpt lat="44.4001" lon="4.18599">
        <ele>225.283</ele>
        <time>2015-07-28T20:39:26Z</time>
      </trkpt>
      <trkpt lat="44.40026" lon="4.18607">
        <ele>223.311</ele>
        <time>2015-07-28T20:39:46Z</time>
      </trkpt>
      <trkpt lat="44.40044" lon="4.18585">
        <ele>223.008</ele>
        <time>2015-07-28T20:40:06Z</time>
      </trkpt>
      <trkpt lat="44.40068" lon="4.18586">
        <ele>224.878</ele>
        <time>2015-07-28T20:40:26Z</time>
      </trkpt>
      <trkpt lat="44.40082" lon="4.18601">
        <ele>226.232</ele>
        <time>2015-07-28T20:40:46Z</time>
      </trkpt>
      <trkpt lat="44.40118" lon="4.18692">
        <ele>226.379</ele>
        <time>2015-07-28T20:41:06Z</time>
      </trkpt>
      <trkpt lat="44.40193" lon="4.18729">
        <ele>234.527</ele>
        <time>2015-07-28T20:41:26Z</time>
      </trkpt>
      <trkpt lat="44.40225" lon="4.18749">
        <ele>236.369</ele>
        <time>2015-07-28T20:41:46Z</time>
      </trkpt>
      <trkpt lat="44.40208" lon="4.18783">
        <ele>230.954</ele>
        <time>2015-07-28T20:42:06Z</time>
      </trkpt>
      <trkpt lat="44.40217" lon="4.18885">
        <ele>223.387</ele>
        <time>2015-07-28T20:42:26Z</time>
      </trkpt>
      <trkpt lat="44.40228" lon="4.18901">
        <ele>222.712</ele>
        <time>2015-07-28T20:42:46Z</time>
      </trkpt>
      <trkpt lat="44.40246" lon="4.1891">
        <ele>221.976</ele>
        <time>2015-07-28T20:43:06Z</time>
      </trkpt>
      <trkpt lat="44.40239" lon="4.18957">
        <ele>224.19</ele>
        <time>2015-07-28T20:43:26Z</time>
      </trkpt>
      <trkpt lat="44.40215" lon="4.18958">
        <ele>225.119</ele>
        <time>2015-07-28T20:43:46Z</time>
      </trkpt>
      <trkpt lat="44.40204" lon="4.1897">
        <ele>226.308</ele>
        <time>2015-07-28T20:44:06Z</time>
      </trkpt>
      <trkpt lat="44.40193" lon="4.19015">
        <ele>226.263</ele>
        <time>2015-07-28T20:44:26Z</time>
      </trkpt>
      <trkpt lat="44.40133" lon="4.19062">
        <ele>233.027</ele>
        <time>2015-07-28T20:44:46Z</time>
      </trkpt>
      <trkpt lat="44.40115" lon="4.19061">
        <ele>233.114</ele>
        <time>2015-07-28T20:45:06Z</time>
      </trkpt>
      <trkpt lat="44.40059" lon="4.19116">
        <ele>231.012</ele>
        <time>2015-07-28T20:45:26Z</time>
      </trkpt>
      <trkpt lat="44.39974" lon="4.19124">
        <ele>221.664</ele>
        <time>2015-07-28T20:45:46Z</time>
      </trkpt>
      <trkpt lat="44.39825" lon="4.19187">
        <ele>193.219</ele>
        <time>2015-07-28T20:46:06Z</time>
      </trkpt>
      <trkpt lat="44.39801" lon="4.19203">
        <ele>191.352</ele>
        <time>2015-07-28T20:46:26Z</time>
      </trkpt>
      <trkpt lat="44.39758" lon="4.19195">
        <ele>192.587</ele>
        <time>2015-07-28T20:46:46Z</time>
      </trkpt>
      <trkpt lat="44.39723" lon="4.1917">
        <ele>191.466</ele>
        <time>2015-07-28T20:47:06Z</time>
      </trkpt>
      <trkpt lat="44.39688" lon="4.19131">
        <ele>193.529</ele>
        <time>2015-07-28T20:47:26Z</time>
      </trkpt>
      <trkpt lat="44.39631" lon="4.19182">
        <ele>183.921</ele>
        <time>2015-07-28T20:47:46Z</time>
      </trkpt>
      <trkpt lat="44.39532" lon="4.1931">
        <ele>164.808</ele>
        <time>2015-07-28T20:48:06Z</time>
      </trkpt>
      <trkpt lat="44.39473" lon="4.19349">
        <ele>169.872</ele>
        <time>2015-07-28T20:48:26Z</time>
      </trkpt>
      <trkpt lat="44.39436" lon="4.19411">
        <ele>171.926</ele>
        <time>2015-07-28T20:48:46Z</time>
      </trkpt>
      <trkpt lat="44.39418" lon="4.19513">
        <ele>171.813</ele>
        <time>2015-07-28T20:49:06Z</time>
      </trkpt>
      <trkpt lat="44.39398" lon="4.19542">
        <ele>170.291</ele>
        <time>2015-07-28T20:49:26Z</time>
      </trkpt>
      <trkpt lat="44.39365" lon="4.19555">
        <ele>169.053</ele>
        <time>2015-07-28T20:49:46Z</time>
      </trkpt>
      <trkpt lat="44.39331" lon="4.1958">
        <ele>168.358</ele>
        <time>2015-07-28T20:50:06Z</time>
      </trkpt>
      <trkpt lat="44.39275" lon="4.19598">
        <ele>167.631</ele>
        <time>2015-07-28T20:50:26Z</time>
      </trkpt>
      <trkpt lat="44.39245" lon="4.19573">
        <ele>169.036</ele>
        <time>2015-07-28T20:50:46Z</time>
      </trkpt>
      <trkpt lat="44.39222" lon="4.19537">
        <ele>171.051</ele>
        <time>2015-07-28T20:51:06Z</time>
      </trkpt>
      <trkpt lat="44.39208" lon="4.19489">
        <ele>175.001</ele>
        <time>2015-07-28T20:51:26Z</time>
      </trkpt>
      <trkpt lat="44.39185" lon="4.19461">
        <ele>177.311</ele>
        <time>2015-07-28T20:51:46Z</time>
      </trkpt>
      <trkpt lat="44.39165" lon="4.19456">
        <ele>179.008</ele>
        <time>2015-07-28T20:52:06Z</time>
      </trkpt>
      <trkpt lat="44.39162" lon="4.19439">
        <ele>179.461</ele>
        <time>2015-07-28T20:52:26Z</time>
      </trkpt>
      <trkpt lat="44.3913" lon="4.19478">
        <ele>179.395</ele>
        <time>2015-07-28T20:52:46Z</time>
      </trkpt>
      <trkpt lat="44.39101" lon="4.19578">
        <ele>179.572</ele>
        <time>2015-07-28T20:53:06Z</time>
      </trkpt>
      <trkpt lat="44.39083" lon="4.1961">
        <ele>180.97</ele>
        <time>2015-07-28T20:53:26Z</time>
      </trkpt>
      <trkpt lat="44.39066" lon="4.19679">
        <ele>185.032</ele>
        <time>2015-07-28T20:53:46Z</time>
      </trkpt>
      <trkpt lat="44.39059" lon="4.19739">
        <ele>184.467</ele>
        <time>2015-07-28T20:54:06Z</time>
      </trkpt>
      <trkpt lat="44.39019" lon="4.19796">
        <ele>180.77</ele>
        <time>2015-07-28T20:54:26Z</time>
      </trkpt>
      <trkpt lat="44.38972" lon="4.19853">
        <ele>177.345</ele>
        <time>2015-07-28T20:54:46Z</time>
      </trkpt>
      <trkpt lat="44.38959" lon="4.1989">
        <ele>176.559</ele>
        <time>2015-07-28T20:55:06Z</time>
      </trkpt>
      <trkpt lat="44.38848" lon="4.20011">
        <ele>167.503</ele>
        <time>2015-07-28T20:55:26Z</time>
      </trkpt>
      <trkpt lat="44.38809" lon="4.20059">
        <ele>162.423</ele>
        <time>2015-07-28T20:55:46Z</time>
      </trkpt>
      <trkpt lat="44.38713" lon="4.20087">
        <ele>158.708</ele>
        <time>2015-07-28T20:56:06Z</time>
      </trkpt>
      <trkpt lat="44.38635" lon="4.20086">
        <ele>157.391</ele>
        <time>2015-07-28T20:56:26Z</time>
      </trkpt>
      <trkpt lat="44.38577" lon="4.20064">
        <ele>154.445</ele>
        <time>2015-07-28T20:56:46Z</time>
      </trkpt>
      <trkpt lat="44.38447" lon="4.20051">
        <ele>150.112</ele>
        <time>2015-07-28T20:57:06Z</time>
      </trkpt>
      <trkpt lat="44.38417" lon="4.20042">
        <ele>149.06</ele>
        <time>2015-07-28T20:57:26Z</time>
      </trkpt>
      <trkpt lat="44.38385" lon="4.20049">
        <ele>148.712</ele>
        <time>2015-07-28T20:57:46Z</time>
      </trkpt>
      <trkpt lat="44.38331" lon="4.20043">
        <ele>146.417</ele>
        <time>2015-07-28T20:58:06Z</time>
      </trkpt>
      <trkpt lat="44.38311" lon="4.20052">
        <ele>145.46</ele>
        <time>2015-07-28T20:58:26Z</time>
      </trkpt>
      <trkpt lat="44.38227" lon="4.20038">
        <ele>148.285</ele>
        <time>2015-07-28T20:58:46Z</time>
      </trkpt>
      <trkpt lat="44.38212" lon="4.20007">
        <ele>149.022</ele>
        <time>2015-07-28T20:59:06Z</time>
      </trkpt>
      <trkpt lat="44.38141" lon="4.19945">
        <ele>146.162</ele>
        <time>2015-07-28T20:59:26Z</time>
      </trkpt>
      <trkpt lat="44.38067" lon="4.19949">
        <ele>143.008</ele>
        <time>2015-07-28T20:59:46Z</time>
      </trkpt>
      <trkpt lat="44.38033" lon="4.19969">
        <ele>141.308</ele>
        <time>2015-07-28T21:00:06Z</time>
      </trkpt>
      <trkpt lat="44.3797" lon="4.19994">
        <ele>137.178</ele>
        <time>2015-07-28T21:00:26Z</time>
      </trkpt>
      <trkpt lat="44.37869" lon="4.20007">
        <ele>134.012</ele>
        <time>2015-07-28T21:00:46Z</time>
      </trkpt>
      <trkpt lat="44.37756" lon="4.20004">
        <ele>132.149</ele>
        <time>2015-07-28T21:01:06Z</time>
      </trkpt>
      <trkpt lat="44.37715" lon="4.20017">
        <ele>135.337</ele>
        <time>2015-07-28T21:01:26Z</time>
      </trkpt>
      <trkpt lat="44.37695" lon="4.20008">
        <ele>136.059</ele>
        <time>2015-07-28T21:01:46Z</time>
      </trkpt>
      <trkpt lat="44.37571" lon="4.20043">
        <ele>132.954</ele>
        <time>2015-07-28T21:02:06Z</time>
      </trkpt>
      <trkpt lat="44.37542" lon="4.20078">
        <ele>132.767</ele>
        <time>2015-07-28T21:02:26Z</time>
      </trkpt>
      <trkpt lat="44.37506" lon="4.20094">
        <ele>131.752</ele>
        <time>2015-07-28T21:02:46Z</time>
      </trkpt>
      <trkpt lat="44.37481" lon="4.20091">
        <ele>131.769</ele>
        <time>2015-07-28T21:03:06Z</time>
      </trkpt>
      <trkpt lat="44.37469" lon="4.20146">
        <ele>129.804</ele>
        <time>2015-07-28T21:03:26Z</time>
      </trkpt>
      <trkpt lat="44.37465" lon="4.20289">
        <ele>126.424</ele>
        <time>2015-07-28T21:03:46Z</time>
      </trkpt>
      <trkpt lat="44.37481" lon="4.20409">
        <ele>125.408</ele>
        <time>2015-07-28T21:04:06Z</time>
      </trkpt>
      <trkpt lat="44.37483" lon="4.20585">
        <ele>126.892</ele>
        <time>2015-07-28T21:04:26Z</time>
      </trkpt>
      <trkpt lat="44.37473" lon="4.20745">
        <ele>124.276</ele>
        <time>2015-07-28T21:04:46Z</time>
      </trkpt>
      <trkpt lat="44.37479" lon="4.20805">
        <ele>123.323</ele>
        <time>2015-07-28T21:05:06Z</time>
      </trkpt>
      <trkpt lat="44.37474" lon="4.20904">
        <ele>125.431</ele>
        <time>2015-07-28T21:05:26Z</time>
      </trkpt>
      <trkpt lat="44.37549" lon="4.21032">
        <ele>121.143</ele>
        <time>2015-07-28T21:05:46Z</time>
      </trkpt>
      <trkpt lat="44.37592" lon="4.21091">
        <ele>124.768</ele>
        <time>2015-07-28T21:06:06Z</time>
      </trkpt>
      <trkpt lat="44.37643" lon="4.21119">
        <ele>122.171</ele>
        <time>2015-07-28T21:06:26Z</time>
      </trkpt>
      <trkpt lat="44.37695" lon="4.21195">
        <ele>122.036</ele>
        <time>2015-07-28T21:06:46Z</time>
      </trkpt>
      <trkpt lat="44.37726" lon="4.21257">
        <ele>123.112</ele>
        <time>2015-07-28T21:07:06Z</time>
      </trkpt>
      <trkpt lat="44.37764" lon="4.21377">
        <ele>123.432</ele>
        <time>2015-07-28T21:07:26Z</time>
      </trkpt>
      <trkpt lat="44.3779" lon="4.21392">
        <ele>122.505</ele>
        <time>2015-07-28T21:07:46Z</time>
      </trkpt>
      <trkpt lat="44.37789" lon="4.21501">
        <ele>122.008</ele>
        <time>2015-07-28T21:08:06Z</time>
      </trkpt>
      <trkpt lat="44.37772" lon="4.21539">
        <ele>121.887</ele>
        <time>2015-07-28T21:08:26Z</time>
      </trkpt>
      <trkpt lat="44.37821" lon="4.21581">
        <ele>121.151</ele>
        <time>2015-07-28T21:08:46Z</time>
      </trkpt>
      <trkpt lat="44.37917" lon="4.21579">
        <ele>119.058</ele>
        <time>2015-07-28T21:09:06Z</time>
      </trkpt>
      <trkpt lat="44.37931" lon="4.21591">
        <ele>118.736</ele>
        <time>2015-07-28T21:09:26Z</time>
      </trkpt>
      <trkpt lat="44.37954" lon="4.21684">
        <ele>118.428</ele>
        <time>2015-07-28T21:09:46Z</time>
      </trkpt>
      <trkpt lat="44.38036" lon="4.21821">
        <ele>117.883</ele>
        <time>2015-07-28T21:10:06Z</time>
      </trkpt>
      <trkpt lat="44.3809" lon="4.21867">
        <ele>118.446</ele>
        <time>2015-07-28T21:10:26Z</time>
      </trkpt>
      <trkpt lat="44.38111" lon="4.21958">
        <ele>121.061</ele>
        <time>2015-07-28T21:10:46Z</time>
      </trkpt>
      <trkpt lat="44.38128" lon="4.21987">
        <ele>121.135</ele>
        <time>2015-07-28T21:11:06Z</time>
      </trkpt>
      <trkpt lat="44.38215" lon="4.22091">
        <ele>125.986</ele>
        <time>2015-07-28T21:11:26Z</time>
      </trkpt>
      <trkpt lat="44.38238" lon="4.22146">
        <ele>127.514</ele>
        <time>2015-07-28T21:11:46Z</time>
      </trkpt>
      <trkpt lat="44.38277" lon="4.2218">
        <ele>125.608</ele>
        <time>2015-07-28T21:12:06Z</time>
      </trkpt>
      <trkpt lat="44.38318" lon="4.22251">
        <ele>119.179</ele>
        <time>2015-07-28T21:12:26Z</time>
      </trkpt>
      <trkpt lat="44.38356" lon="4.22294">
        <ele>118.543</ele>
        <time>2015-07-28T21:12:46Z</time>
      </trkpt>
      <trkpt lat="44.3843" lon="4.22331">
        <ele>120.38</ele>
        <time>2015-07-28T21:13:06Z</time>
      </trkpt>
      <trkpt lat="44.38476" lon="4.2239">
        <ele>117.898</ele>
        <time>2015-07-28T21:13:26Z</time>
      </trkpt>
      <trkpt lat="44.38504" lon="4.22416">
        <ele>115.72</ele>
        <time>2015-07-28T21:13:46Z</time>
      </trkpt>
      <trkpt lat="44.38543" lon="4.22417">
        <ele>114.065</ele>
        <time>2015-07-28T21:14:06Z</time>
      </trkpt>
      <trkpt lat="44.38567" lon="4.22503">
        <ele>114.018</ele>
        <time>2015-07-28T21:14:26Z</time>
      </trkpt>
      <trkpt lat="44.38568" lon="4.22683">
        <ele>114.993</ele>
        <time>2015-07-28T21:14:46Z</time>
      </trkpt>
      <trkpt lat="44.38592" lon="4.22795">
        <ele>112.949</ele>
        <time>2015-07-28T21:15:06Z</time>
      </trkpt>
      <trkpt lat="44.38599" lon="4.22954">
        <ele>115.002</ele>
        <time>2015-07-28T21:15:26Z</time>
      </trkpt>
      <trkpt lat="44.38599" lon="4.2309">
        <ele>113.622</ele>
        <time>2015-07-28T21:15:46Z</time>
      </trkpt>
      <trkpt lat="44.38605" lon="4.23125">
        <ele>113.808</ele>
        <time>2015-07-28T21:16:06Z</time>
      </trkpt>
      <trkpt lat="44.38629" lon="4.23175">
        <ele>113.81</ele>
        <time>2015-07-28T21:16:26Z</time>
      </trkpt>
      <trkpt lat="44.38747" lon="4.23329">
        <ele>114.054</ele>
        <time>2015-07-28T21:16:46Z</time>
      </trkpt>
      <trkpt lat="44.38856" lon="4.23347">
        <ele>113.531</ele>
        <time>2015-07-28T21:17:06Z</time>
      </trkpt>
      <trkpt lat="44.38966" lon="4.23362">
        <ele>117.759</ele>
        <time>2015-07-28T21:17:26Z</time>
      </trkpt>
      <trkpt lat="44.38965" lon="4.23375">
        <ele>117.481</ele>
        <time>2015-07-28T21:17:46Z</time>
      </trkpt>
      <trkpt lat="44.39003" lon="4.23384">
        <ele>117.256</ele>
        <time>2015-07-28T21:18:06Z</time>
      </trkpt>
      <trkpt lat="44.39238" lon="4.23423">
        <ele>112.4</ele>
      </trkpt>
      <trkpt lat="44.39516" lon="4.23177">
        <ele>132.3</ele>
      </trkpt>
      <trkpt lat="44.396" lon="4.23128">
        <ele>137.6</ele>
      </trkpt>
      <trkpt lat="44.39685" lon="4.23143">
        <ele>142.2</ele>
      </trkpt>
      <trkpt lat="44.39685" lon="4.23101">
        <ele>142.8</ele>
      </trkpt>
    </trkseg>
  </trk>
</gpx>